createdAt,value
2022-12-24T00:02:22.153Z,31.48
2022-12-24T00:04:58.685Z,36.48
2022-12-24T00:07:26.492Z,33.28
2022-12-24T00:09:57.155Z,33.02
2022-12-24T00:12:28.901Z,31.52
2022-12-24T00:14:59.534Z,32.28
2022-12-24T00:17:30.244Z,31.82
2022-12-24T00:20:04.515Z,32.75
2022-12-24T00:22:35.082Z,30.60
2022-12-24T00:25:05.825Z,30.95
2022-12-24T00:27:37.691Z,30.77
2022-12-24T00:30:10.355Z,30.20
2022-12-24T00:32:41.973Z,30.10
2022-12-24T00:35:12.634Z,30.55
2022-12-24T00:37:43.243Z,31.25
2022-12-24T00:40:15.122Z,30.70
2022-12-24T00:42:46.152Z,30.45
2022-12-24T00:45:16.872Z,29.20
2022-12-24T00:47:48.663Z,29.90
2022-12-24T00:50:20.414Z,27.75
2022-12-24T00:52:52.126Z,28.20
2022-12-24T00:55:23.728Z,30.20
2022-12-24T00:57:55.528Z,28.45
2022-12-24T01:00:26.068Z,28.70
2022-12-24T01:02:56.885Z,27.05
2022-12-24T01:05:27.680Z,27.50
2022-12-24T01:07:58.284Z,28.80
2022-12-24T01:10:28.959Z,27.35
2022-12-24T01:13:04.826Z,26.48
2022-12-24T01:15:38.197Z,27.77
2022-12-24T01:18:09.033Z,25.80
2022-12-24T01:20:39.953Z,26.50
2022-12-24T01:23:11.826Z,25.45
2022-12-24T01:25:42.382Z,25.57
2022-12-24T01:28:13.048Z,26.10
2022-12-24T01:30:45.387Z,24.80
2022-12-24T01:33:17.350Z,25.32
2022-12-24T01:35:49.040Z,27.17
2022-12-24T01:38:19.596Z,25.27
2022-12-24T01:41:07.931Z,24.80
2022-12-24T01:43:38.547Z,25.65
2022-12-24T01:46:15.986Z,25.02
2022-12-24T01:48:52.402Z,24.07
2022-12-24T01:51:44.320Z,23.95
2022-12-24T01:54:18.373Z,24.47
2022-12-24T01:56:52.959Z,24.52
2022-12-24T01:59:25.482Z,22.65
2022-12-24T02:01:57.635Z,22.35
2022-12-24T02:04:47.849Z,21.97
2022-12-24T02:07:18.390Z,22.93
2022-12-24T02:09:51.224Z,24.82
2022-12-24T02:12:21.960Z,24.43
2022-12-24T02:14:55.013Z,25.40
2022-12-24T02:17:55.835Z,25.85
2022-12-24T02:20:53.538Z,23.80
2022-12-24T02:23:39.022Z,24.43
2022-12-24T02:26:30.375Z,22.32
2022-12-24T02:29:15.760Z,22.48
2022-12-24T02:31:50.585Z,22.22
2022-12-24T02:34:28.271Z,20.82
2022-12-24T02:37:03.001Z,21.15
2022-12-24T02:39:55.616Z,21.03
2022-12-24T02:42:30.242Z,20.97
2022-12-24T02:45:18.999Z,19.65
2022-12-24T02:47:50.640Z,20.55
2022-12-24T02:50:21.511Z,17.98
2022-12-24T02:52:52.880Z,19.05
2022-12-24T02:55:39.700Z,19.60
2022-12-24T02:58:22.120Z,18.90
2022-12-24T03:01:07.394Z,19.30
2022-12-24T03:03:47.368Z,18.85
2022-12-24T03:06:22.320Z,19.20
2022-12-24T03:08:56.984Z,19.45
2022-12-24T03:11:29.859Z,19.12
2022-12-24T03:14:02.310Z,18.10
2022-12-24T03:16:34.101Z,17.90
2022-12-24T03:19:06.114Z,17.82
2022-12-24T03:21:39.137Z,17.85
2022-12-24T03:24:11.210Z,18.15
2022-12-24T03:26:43.855Z,17.55
2022-12-24T03:29:15.574Z,18.10
2022-12-24T03:31:49.309Z,17.77
2022-12-24T03:34:21.376Z,18.07
2022-12-24T03:36:52.305Z,16.80
2022-12-24T03:39:22.963Z,17.73
2022-12-24T03:41:54.696Z,17.50
2022-12-24T03:44:25.549Z,17.52
2022-12-24T03:46:56.211Z,17.82
2022-12-24T03:49:26.804Z,17.37
2022-12-24T03:51:57.332Z,18.60
2022-12-24T03:54:29.126Z,18.25
2022-12-24T03:56:59.725Z,17.67
2022-12-24T03:59:30.600Z,17.37
2022-12-24T04:02:01.664Z,17.98
2022-12-24T04:04:33.660Z,17.17
2022-12-24T04:07:06.782Z,18.90
2022-12-24T04:09:39.500Z,19.07
2022-12-24T04:12:10.328Z,18.07
2022-12-24T04:14:40.932Z,18.73
2022-12-24T04:17:11.472Z,17.30
2022-12-24T04:19:42.151Z,18.87
2022-12-24T04:22:14.172Z,17.70
2022-12-24T04:24:44.872Z,17.70
2022-12-24T04:27:16.557Z,16.73
2022-12-24T04:29:47.117Z,17.67
2022-12-24T04:32:17.711Z,17.75
2022-12-24T04:34:48.421Z,16.12
2022-12-24T04:37:19.356Z,17.40
2022-12-24T04:39:49.970Z,17.32
2022-12-24T04:42:21.795Z,16.65
2022-12-24T04:44:52.404Z,15.80
2022-12-24T04:47:24.606Z,17.05
2022-12-24T04:49:55.371Z,17.35
2022-12-24T04:52:27.121Z,16.95
2022-12-24T04:54:57.708Z,15.95
2022-12-24T04:57:32.086Z,15.55
2022-12-24T05:00:05.985Z,16.55
2022-12-24T05:02:37.711Z,16.32
2022-12-24T05:05:09.092Z,16.42
2022-12-24T05:07:39.692Z,15.75
2022-12-24T05:10:11.733Z,16.55
2022-12-24T05:12:43.535Z,16.20
2022-12-24T05:15:14.082Z,16.35
2022-12-24T05:17:44.786Z,17.02
2022-12-24T05:20:16.340Z,16.67
2022-12-24T05:23:05.404Z,16.05
2022-12-24T05:25:57.541Z,16.77
2022-12-24T05:28:28.450Z,16.17
2022-12-24T05:31:00.211Z,16.87
2022-12-24T05:33:32.381Z,16.32
2022-12-24T05:36:03.250Z,17.52
2022-12-24T05:38:35.076Z,16.75
2022-12-24T05:41:07.304Z,16.48
2022-12-24T05:43:40.554Z,16.45
2022-12-24T05:46:14.395Z,16.48
2022-12-24T05:48:45.067Z,16.02
2022-12-24T05:51:19.873Z,16.02
2022-12-24T05:53:52.041Z,16.62
2022-12-24T05:56:25.142Z,15.53
2022-12-24T05:58:58.187Z,15.85
2022-12-24T06:01:29.918Z,15.08
2022-12-24T06:04:00.660Z,14.95
2022-12-24T06:06:37.406Z,15.18
2022-12-24T06:09:08.557Z,14.95
2022-12-24T06:11:39.409Z,15.32
2022-12-24T06:14:11.356Z,15.63
2022-12-24T06:16:42.601Z,15.72
2022-12-24T06:19:14.156Z,14.70
2022-12-24T06:21:44.866Z,14.28
2022-12-24T06:24:15.679Z,14.25
2022-12-24T06:26:48.092Z,14.78
2022-12-24T06:29:18.860Z,14.40
2022-12-24T06:31:50.528Z,13.93
2022-12-24T06:34:22.212Z,13.72
2022-12-24T06:36:53.086Z,13.78
2022-12-24T06:39:24.220Z,13.80
2022-12-24T06:41:55.050Z,12.85
2022-12-24T06:44:26.685Z,12.90
2022-12-24T06:46:57.395Z,13.18
2022-12-24T06:49:29.279Z,13.22
2022-12-24T06:52:01.164Z,12.88
2022-12-24T06:54:33.244Z,11.70
2022-12-24T06:57:05.410Z,12.47
2022-12-24T06:59:36.073Z,12.33
2022-12-24T07:02:07.114Z,11.88
2022-12-24T07:04:40.126Z,11.35
2022-12-24T07:07:12.106Z,11.38
2022-12-24T07:09:43.939Z,11.08
2022-12-24T07:12:14.509Z,10.70
2022-12-24T07:14:45.312Z,10.30
2022-12-24T07:17:16.300Z,9.40
2022-12-24T07:19:48.157Z,9.48
2022-12-24T07:22:18.716Z,9.45
2022-12-24T07:24:49.734Z,9.80
2022-12-24T07:27:20.445Z,9.63
2022-12-24T07:29:50.942Z,9.75
2022-12-24T07:32:22.875Z,10.38
2022-12-24T07:34:54.552Z,9.35
2022-12-24T07:37:25.643Z,9.73
2022-12-24T07:39:57.453Z,10.32
2022-12-24T07:42:29.337Z,11.55
2022-12-24T07:44:59.920Z,11.43
2022-12-24T07:47:30.500Z,13.35
2022-12-24T07:50:01.036Z,11.68
2022-12-24T07:52:31.664Z,11.95
2022-12-24T07:55:02.873Z,12.15
2022-12-24T07:57:33.537Z,12.53
2022-12-24T08:00:04.371Z,13.38
2022-12-24T08:02:37.157Z,12.95
2022-12-24T08:05:09.819Z,13.98
2022-12-24T08:07:42.054Z,15.93
2022-12-24T08:10:12.775Z,15.30
2022-12-24T08:12:43.353Z,15.68
2022-12-24T08:15:14.223Z,15.40
2022-12-24T08:17:48.067Z,15.10
2022-12-24T08:20:19.337Z,15.30
2022-12-24T08:22:50.153Z,14.68
2022-12-24T08:25:21.038Z,16.25
2022-12-24T08:27:53.062Z,14.23
2022-12-24T08:30:23.884Z,15.03
2022-12-24T08:32:55.569Z,14.20
2022-12-24T08:35:26.128Z,13.03
2022-12-24T08:37:56.686Z,15.38
2022-12-24T08:40:27.841Z,13.38
2022-12-24T08:42:58.586Z,13.30
2022-12-24T08:45:33.171Z,13.08
2022-12-24T08:48:02.722Z,12.07
2022-12-24T08:50:34.953Z,11.57
2022-12-24T08:53:05.563Z,12.05
2022-12-24T08:55:36.688Z,12.78
2022-12-24T08:58:08.465Z,11.43
2022-12-24T09:00:40.311Z,11.22
2022-12-24T09:03:14.431Z,11.15
2022-12-24T09:05:46.508Z,11.75
2022-12-24T09:08:17.082Z,11.25
2022-12-24T09:10:47.818Z,11.40
2022-12-24T09:13:19.585Z,11.78
2022-12-24T09:15:57.010Z,11.53
2022-12-24T09:18:29.065Z,11.57
2022-12-24T09:21:02.046Z,9.90
2022-12-24T09:23:41.011Z,10.08
2022-12-24T09:26:20.511Z,9.43
2022-12-24T09:28:52.544Z,9.13
2022-12-24T09:31:24.138Z,9.35
2022-12-24T09:33:56.456Z,9.23
2022-12-24T09:36:27.448Z,9.33
2022-12-24T09:38:59.963Z,9.53
2022-12-24T09:41:52.564Z,9.00
2022-12-24T09:44:26.038Z,9.40
2022-12-24T09:47:04.048Z,9.60
2022-12-24T09:49:44.955Z,9.80
2022-12-24T09:52:20.071Z,9.65
2022-12-24T09:54:53.438Z,10.18
2022-12-24T09:57:28.697Z,9.10
2022-12-24T10:00:00.894Z,10.23
2022-12-24T10:02:33.719Z,9.05
2022-12-24T10:05:04.525Z,8.45
2022-12-24T10:07:46.844Z,8.35
2022-12-24T10:10:32.269Z,8.45
2022-12-24T10:13:06.789Z,7.65
2022-12-24T10:15:53.261Z,7.87
2022-12-24T10:18:33.585Z,7.10
2022-12-24T10:21:13.748Z,7.05
2022-12-24T10:23:54.250Z,7.15
2022-12-24T10:26:32.311Z,7.78
2022-12-24T10:29:12.319Z,7.37
2022-12-24T10:31:57.073Z,7.83
2022-12-24T10:34:30.525Z,7.28
2022-12-24T10:37:03.714Z,7.37
2022-12-24T10:39:35.746Z,7.60
2022-12-24T10:42:08.733Z,7.53
2022-12-24T10:44:39.261Z,6.60
2022-12-24T10:47:12.187Z,7.10
2022-12-24T10:50:08.585Z,6.72
2022-12-24T10:52:43.077Z,7.28
2022-12-24T10:55:19.291Z,7.00
2022-12-24T10:58:05.415Z,7.58
2022-12-24T11:00:38.159Z,7.12
2022-12-24T11:03:21.567Z,6.75
2022-12-24T11:06:07.422Z,6.90
2022-12-24T11:08:41.959Z,6.62
2022-12-24T11:11:21.134Z,7.35
2022-12-24T11:13:57.738Z,6.58
2022-12-24T11:16:35.853Z,6.83
2022-12-24T11:19:09.639Z,6.67
2022-12-24T11:21:42.574Z,7.17
2022-12-24T11:24:19.139Z,7.25
2022-12-24T11:26:51.010Z,7.20
2022-12-24T11:29:24.078Z,7.60
2022-12-24T11:31:56.476Z,6.60
2022-12-24T11:34:30.503Z,7.67
2022-12-24T11:37:15.372Z,7.22
2022-12-24T11:39:49.140Z,6.92
2022-12-24T11:42:31.349Z,7.22
2022-12-24T11:45:05.564Z,7.10
2022-12-24T11:47:40.729Z,7.22
2022-12-24T11:50:35.675Z,6.85
2022-12-24T11:53:12.001Z,6.80
2022-12-24T11:55:55.725Z,6.90
2022-12-24T11:58:47.474Z,7.65
2022-12-24T12:01:33.159Z,7.20
2022-12-24T12:04:10.789Z,7.33
2022-12-24T12:06:57.343Z,7.50
2022-12-24T12:09:33.523Z,7.60
2022-12-24T12:12:09.908Z,6.95
2022-12-24T12:14:44.427Z,7.67
2022-12-24T12:17:30.483Z,8.55
2022-12-24T12:20:20.659Z,7.62
2022-12-24T12:23:15.919Z,7.78
2022-12-24T12:25:51.046Z,7.75
2022-12-24T12:28:28.469Z,7.75
2022-12-24T12:31:15.526Z,7.87
2022-12-24T12:33:51.171Z,8.48
2022-12-24T12:36:28.830Z,7.78
2022-12-24T12:38:59.484Z,7.62
2022-12-24T12:41:39.850Z,7.83
2022-12-24T12:44:35.986Z,7.65
2022-12-24T12:47:24.816Z,7.28
2022-12-24T12:50:22.407Z,7.42
2022-12-24T12:53:18.270Z,7.83
2022-12-24T12:56:03.522Z,8.03
2022-12-24T12:58:42.865Z,7.60
2022-12-24T13:01:30.465Z,7.28
2022-12-24T13:04:13.833Z,7.30
2022-12-24T13:07:05.504Z,7.83
2022-12-24T13:09:47.900Z,7.95
2022-12-24T13:12:34.485Z,8.78
2022-12-24T13:15:33.873Z,8.60
2022-12-24T13:18:14.335Z,8.13
2022-12-24T13:20:51.495Z,8.78
2022-12-24T13:23:24.424Z,8.80
2022-12-24T13:25:57.998Z,9.40
2022-12-24T13:28:34.243Z,8.75
2022-12-24T13:31:07.804Z,8.75
2022-12-24T13:33:42.584Z,8.85
2022-12-24T13:36:16.997Z,8.48
2022-12-24T13:38:58.135Z,8.20
2022-12-24T13:41:41.094Z,9.10
2022-12-24T13:44:18.427Z,9.05
2022-12-24T13:47:08.195Z,9.18
2022-12-24T13:49:50.781Z,11.05
2022-12-24T13:52:28.830Z,10.38
2022-12-24T13:55:02.385Z,8.78
2022-12-24T13:57:38.778Z,8.88
2022-12-24T14:00:15.205Z,9.00
2022-12-24T14:02:51.896Z,9.48
2022-12-24T14:05:37.355Z,9.28
2022-12-24T14:08:16.714Z,9.20
2022-12-24T14:10:50.218Z,9.38
2022-12-24T14:13:43.253Z,9.25
2022-12-24T14:16:33.335Z,10.78
2022-12-24T14:19:06.639Z,10.03
2022-12-24T14:21:56.543Z,9.05
2022-12-24T14:24:38.801Z,9.43
2022-12-24T14:27:14.068Z,9.95
2022-12-24T14:30:06.142Z,10.63
2022-12-24T14:32:39.395Z,10.32
2022-12-24T14:35:12.902Z,11.22
2022-12-24T14:37:50.260Z,10.72
2022-12-24T14:40:24.022Z,10.43
2022-12-24T14:43:19.327Z,12.53
2022-12-24T14:46:05.007Z,13.85
2022-12-24T14:48:45.794Z,12.70
2022-12-24T14:51:22.234Z,12.25
2022-12-24T14:54:12.382Z,12.88
2022-12-24T14:56:44.049Z,12.47
2022-12-24T14:59:21.632Z,13.10
2022-12-24T15:01:52.473Z,12.55
2022-12-24T15:04:23.154Z,12.30
2022-12-24T15:06:57.827Z,13.25
2022-12-24T15:09:31.373Z,14.70
2022-12-24T15:12:05.442Z,14.28
2022-12-24T15:14:40.095Z,13.20
2022-12-24T15:17:15.944Z,13.25
2022-12-24T15:19:50.326Z,12.45
2022-12-24T15:25:00.458Z,12.55
2022-12-24T15:27:34.823Z,14.35
2022-12-24T15:32:37.622Z,17.02
2022-12-24T15:35:11.055Z,17.37
2022-12-24T15:37:43.607Z,16.00
2022-12-24T15:40:22.888Z,15.35
2022-12-24T15:42:55.408Z,17.32
2022-12-24T15:45:30.269Z,17.15
2022-12-24T15:48:09.114Z,17.82
2022-12-24T15:50:46.407Z,18.32
2022-12-24T15:53:22.046Z,17.27
2022-12-24T15:56:14.754Z,17.37
2022-12-24T15:58:46.740Z,16.57
2022-12-24T16:01:20.298Z,17.77
2022-12-24T16:03:53.949Z,17.77
2022-12-24T16:06:24.960Z,17.30
2022-12-24T16:08:57.227Z,17.42
2022-12-24T16:11:37.723Z,17.65
2022-12-24T16:14:12.252Z,17.70
2022-12-24T16:16:45.705Z,17.70
2022-12-24T16:19:22.858Z,15.80
2022-12-24T16:21:57.632Z,16.15
2022-12-24T16:24:31.338Z,16.57
2022-12-24T16:27:01.902Z,16.40
2022-12-24T16:29:32.575Z,16.57
2022-12-24T16:32:04.444Z,15.63
2022-12-24T16:34:35.423Z,15.70
2022-12-24T16:37:08.197Z,16.00
2022-12-24T16:39:38.784Z,15.15
2022-12-24T16:42:27.577Z,15.78
2022-12-24T16:44:59.367Z,17.07
2022-12-24T16:47:37.192Z,17.67
2022-12-24T16:50:07.320Z,16.55
2022-12-24T16:52:38.972Z,17.50
2022-12-24T16:55:13.219Z,17.90
2022-12-24T16:57:44.565Z,18.05
2022-12-24T17:00:21.246Z,19.05
2022-12-24T17:02:52.714Z,17.80
2022-12-24T17:05:24.161Z,17.62
2022-12-24T17:07:55.995Z,18.55
2022-12-24T17:10:26.574Z,18.67
2022-12-24T17:12:58.654Z,17.70
2022-12-24T17:15:30.291Z,17.90
2022-12-24T17:18:01.210Z,18.17
2022-12-24T17:20:31.774Z,18.82
2022-12-24T17:23:02.458Z,18.00
2022-12-24T17:25:35.667Z,17.32
2022-12-24T17:28:07.886Z,18.15
2022-12-24T17:30:41.279Z,18.27
2022-12-24T17:33:14.907Z,18.48
2022-12-24T17:35:47.271Z,18.55
2022-12-24T17:38:17.801Z,19.17
2022-12-24T17:40:49.575Z,21.27
2022-12-24T17:43:20.199Z,20.20
2022-12-24T17:45:51.950Z,19.80
2022-12-24T17:48:22.547Z,20.72
2022-12-24T17:50:53.535Z,19.27
2022-12-24T17:53:25.352Z,19.00
2022-12-24T17:55:56.154Z,19.77
2022-12-24T17:58:26.759Z,19.70
2022-12-24T18:00:58.568Z,19.32
2022-12-24T18:03:29.483Z,20.90
2022-12-24T18:06:06.179Z,19.98
2022-12-24T18:11:19.407Z,19.75
2022-12-24T18:13:50.996Z,19.48
2022-12-24T18:16:26.305Z,20.75
2022-12-24T18:18:57.216Z,21.30
2022-12-24T18:21:31.491Z,21.45
2022-12-24T18:24:02.382Z,22.15
2022-12-24T18:26:33.561Z,22.30
2022-12-24T18:29:06.280Z,22.02
2022-12-24T18:31:37.752Z,23.12
2022-12-24T18:34:10.705Z,22.65
2022-12-24T18:36:43.096Z,23.12
2022-12-24T18:39:14.797Z,22.25
2022-12-24T18:41:46.539Z,21.93
2022-12-24T18:44:24.263Z,21.73
2022-12-24T18:46:49.514Z,20.10
2022-12-24T18:49:21.465Z,19.75
2022-12-24T18:51:52.036Z,19.73
2022-12-24T18:54:22.551Z,20.25
2022-12-24T18:56:53.313Z,21.37
2022-12-24T18:59:25.552Z,20.88
2022-12-24T19:01:56.356Z,20.75
2022-12-24T19:04:28.260Z,20.95
2022-12-24T19:07:00.611Z,21.62
2022-12-24T19:09:32.258Z,20.40
2022-12-24T19:12:03.099Z,23.90
2022-12-24T19:14:33.684Z,22.17
2022-12-24T19:17:04.253Z,22.95
2022-12-24T19:19:35.941Z,21.15
2022-12-24T19:22:06.535Z,20.88
2022-12-24T19:24:38.277Z,21.48
2022-12-24T19:27:08.872Z,21.12
2022-12-24T19:29:39.446Z,19.82
2022-12-24T19:32:10.224Z,20.23
2022-12-24T19:34:43.634Z,20.30
2022-12-24T19:37:14.436Z,22.58
2022-12-24T19:39:45.002Z,20.35
2022-12-24T19:42:22.555Z,20.85
2022-12-24T19:44:57.128Z,20.82
2022-12-24T19:47:28.286Z,20.82
2022-12-24T19:49:59.072Z,20.77
2022-12-24T19:52:31.101Z,20.97
2022-12-24T19:55:01.677Z,20.35
2022-12-24T19:57:33.994Z,19.90
2022-12-24T20:00:07.567Z,21.27
2022-12-24T20:02:38.443Z,21.23
2022-12-24T20:05:10.881Z,21.00
2022-12-24T20:07:42.636Z,22.32
2022-12-24T20:10:14.573Z,24.18
2022-12-24T20:12:46.625Z,24.05
2022-12-24T20:15:17.410Z,22.62
2022-12-24T20:17:49.837Z,22.55
2022-12-24T20:20:20.514Z,22.98
2022-12-24T20:22:52.240Z,22.30
2022-12-24T20:25:24.426Z,22.67
2022-12-24T20:27:56.695Z,23.57
2022-12-24T20:30:27.241Z,21.90
2022-12-24T20:32:59.131Z,23.27
2022-12-24T20:35:29.700Z,22.05
2022-12-24T20:38:01.934Z,21.05
2022-12-24T20:40:34.073Z,21.70
2022-12-24T20:43:05.910Z,21.42
2022-12-24T20:45:38.623Z,22.93
2022-12-24T20:48:11.209Z,23.92
2022-12-24T20:50:42.764Z,23.75
2022-12-24T20:53:13.314Z,23.67
2022-12-24T20:55:43.848Z,23.57
2022-12-24T20:58:16.285Z,24.60
2022-12-24T21:00:50.456Z,28.70
2022-12-24T21:03:22.208Z,28.95
2022-12-24T21:05:53.935Z,24.47
2022-12-24T21:08:24.535Z,24.67
2022-12-24T21:11:19.382Z,23.22
2022-12-24T21:13:50.055Z,22.37
2022-12-24T21:16:23.636Z,22.67
2022-12-24T21:18:55.488Z,22.82
2022-12-24T21:21:26.403Z,23.83
2022-12-24T21:23:58.625Z,23.00
2022-12-24T21:26:29.249Z,24.25
2022-12-24T21:28:59.823Z,23.75
2022-12-24T21:31:33.002Z,23.83
2022-12-24T21:34:05.498Z,23.70
2022-12-24T21:36:37.174Z,23.47
2022-12-24T21:39:07.726Z,22.73
2022-12-24T21:41:38.344Z,23.85
2022-12-24T21:44:10.878Z,24.43
2022-12-24T21:46:44.202Z,23.85
2022-12-24T21:49:33.806Z,26.15
2022-12-24T21:52:05.925Z,24.72
2022-12-24T21:54:41.017Z,26.10
2022-12-24T21:57:32.847Z,27.15
2022-12-24T22:00:23.065Z,26.05
2022-12-24T22:02:56.830Z,28.70
2022-12-24T22:05:29.793Z,28.70
2022-12-24T22:08:18.706Z,29.87
2022-12-24T22:11:08.772Z,30.02
2022-12-24T22:13:39.584Z,29.70
2022-12-24T22:16:13.418Z,30.08
2022-12-24T22:18:45.327Z,30.65
2022-12-24T22:21:16.425Z,30.90
2022-12-24T22:23:49.775Z,30.10
2022-12-24T22:26:20.610Z,28.62
2022-12-24T22:28:51.234Z,29.98
2022-12-24T22:31:28.997Z,30.27
2022-12-24T22:34:00.166Z,30.27
2022-12-24T22:36:31.512Z,31.25
2022-12-24T22:39:02.149Z,31.10
2022-12-24T22:41:33.290Z,31.95
2022-12-24T22:44:05.442Z,30.62
2022-12-24T22:46:36.478Z,31.77
2022-12-24T22:49:08.216Z,30.77
2022-12-24T22:51:39.949Z,32.78
2022-12-24T22:54:16.588Z,31.97
2022-12-24T22:56:47.901Z,30.17
2022-12-24T22:59:18.476Z,30.32
2022-12-24T23:01:52.909Z,30.82
2022-12-24T23:04:25.231Z,32.33
2022-12-24T23:06:57.066Z,31.95
2022-12-24T23:09:27.643Z,33.73
2022-12-24T23:11:58.419Z,32.85
2022-12-24T23:14:48.303Z,34.95
2022-12-24T23:17:20.510Z,33.40
2022-12-24T23:19:51.082Z,31.20
2022-12-24T23:22:22.814Z,32.48
2022-12-24T23:24:54.555Z,33.15
2022-12-24T23:27:26.690Z,36.23
2022-12-24T23:29:58.320Z,35.28
2022-12-24T23:32:28.967Z,34.90
2022-12-24T23:34:59.528Z,33.15
2022-12-24T23:37:35.343Z,36.20
2022-12-24T23:40:07.120Z,37.15
2022-12-24T23:42:37.891Z,39.15
2022-12-24T23:45:10.659Z,45.60
2022-12-24T23:47:42.927Z,46.33
2022-12-24T23:50:15.429Z,44.45
2022-12-24T23:52:46.076Z,43.87
2022-12-24T23:55:16.648Z,42.38
2022-12-24T23:57:48.434Z,38.90
